createdAt,value
2019-01-27T00:00:51.184Z,98558.13
2019-01-27T00:03:59.593Z,98571.44
2019-01-27T00:07:06.713Z,98570.58
2019-01-27T00:10:15.172Z,98590.71
2019-01-27T00:13:22.231Z,98590.73
2019-01-27T00:16:30.647Z,98602.75
2019-01-27T00:19:37.730Z,98601.03
2019-01-27T00:25:46.181Z,98625.45
2019-01-27T00:28:35.495Z,98639.59
2019-01-27T00:31:42.604Z,98654.17
2019-01-27T00:34:51.052Z,98656.31
2019-01-27T00:37:58.237Z,98654.19
2019-01-27T00:41:06.682Z,98654.19
2019-01-27T00:44:13.748Z,98659.78
2019-01-27T00:47:22.201Z,98658.91
2019-01-27T00:50:29.321Z,98671.75
2019-01-27T00:56:50.744Z,98672.58
2019-01-27T01:02:57.293Z,98674.77
2019-01-27T01:05:46.579Z,98679.06
2019-01-27T01:08:53.702Z,98673.50
2019-01-27T01:11:43.028Z,98676.07
2019-01-27T01:14:50.154Z,98667.93
2019-01-27T01:23:57.758Z,98663.20
2019-01-27T01:27:04.845Z,98666.62
2019-01-27T01:29:33.501Z,98662.34
2019-01-27T01:32:02.026Z,98652.48
2019-01-27T01:34:30.710Z,98650.33
2019-01-27T01:36:59.384Z,98645.61
2019-01-27T01:39:27.926Z,98638.72
2019-01-27T01:41:56.604Z,98636.13
2019-01-27T01:44:25.154Z,98638.70
2019-01-27T01:46:53.824Z,98640.38
2019-01-27T01:49:22.428Z,98639.95
2019-01-27T01:51:51.102Z,98635.69
2019-01-27T01:54:19.728Z,98634.84
2019-01-27T01:56:48.358Z,98644.26
2019-01-27T01:59:16.959Z,98642.97
2019-01-27T02:02:04.770Z,98647.28
2019-01-27T02:04:33.440Z,98655.44
2019-01-27T02:07:02.009Z,98660.63
2019-01-27T02:09:30.693Z,98657.22
2019-01-27T02:11:59.356Z,98651.66
2019-01-27T02:14:28.037Z,98649.09
2019-01-27T02:16:56.678Z,98651.27
2019-01-27T02:19:25.354Z,98656.84
2019-01-27T02:21:54.040Z,98656.42
2019-01-27T02:24:22.708Z,98650.84
2019-01-27T02:26:51.322Z,98651.71
2019-01-27T02:29:19.944Z,98654.30
2019-01-27T02:31:48.577Z,98654.29
2019-01-27T02:34:17.261Z,98657.30
2019-01-27T02:36:45.885Z,98653.88
2019-01-27T03:07:47.170Z,98666.30
2019-01-27T03:17:25.879Z,98671.88
2019-01-27T03:32:46.753Z,98676.13
2019-01-27T03:42:23.752Z,98685.98
2019-01-27T03:45:32.005Z,98686.84
2019-01-27T03:48:38.824Z,98685.56
2019-01-27T03:58:25.587Z,98696.64
2019-01-27T04:51:14.457Z,98750.59
2019-01-27T05:04:16.480Z,98758.31
2019-01-27T05:10:18.121Z,98768.59
2019-01-27T05:16:24.899Z,98759.58
2019-01-27T06:42:43.870Z,98812.25
2019-01-27T06:58:30.001Z,98809.53
2019-01-27T07:01:58.420Z,98812.42
2019-01-27T07:05:21.576Z,98815.73
2019-01-27T07:22:30.686Z,98803.83
2019-01-27T07:25:36.656Z,98801.95
2019-01-27T07:28:44.434Z,98794.45
2019-01-27T07:31:50.677Z,98789.72
2019-01-27T07:34:58.571Z,98793.05
2019-01-27T07:37:47.983Z,98787.23
2019-01-27T07:41:11.406Z,98789.14
2019-01-27T07:47:36.191Z,98793.23
2019-01-27T07:50:43.700Z,98802.00
2019-01-27T07:53:33.525Z,98786.31
2019-01-27T07:56:54.918Z,98780.75
2019-01-27T07:59:47.142Z,98775.05
2019-01-27T08:03:00.767Z,98775.00
2019-01-27T08:05:57.443Z,98777.80
2019-01-27T08:09:11.388Z,98786.23
2019-01-27T08:12:20.727Z,98781.37
2019-01-27T08:15:20.181Z,98779.23
2019-01-27T08:18:48.080Z,98784.51
2019-01-27T08:21:54.310Z,98788.47
2019-01-27T08:25:16.921Z,98793.67
2019-01-27T08:28:25.152Z,98796.41
2019-01-27T08:31:49.662Z,98788.47
2019-01-27T08:34:55.681Z,98796.59
2019-01-27T08:38:05.166Z,98800.39
2019-01-27T08:41:00.836Z,98806.81
2019-01-27T08:44:13.075Z,98808.55
2019-01-27T08:47:03.936Z,98806.11
2019-01-27T08:50:08.560Z,98815.52
2019-01-27T08:52:59.196Z,98821.09
2019-01-27T08:56:04.126Z,98827.00
2019-01-27T08:58:51.983Z,98818.03
2019-01-27T09:02:16.827Z,98817.02
2019-01-27T09:05:06.335Z,98805.32
2019-01-27T09:11:15.796Z,98809.93
2019-01-27T09:14:03.191Z,98810.20
2019-01-27T09:16:33.486Z,98817.11
2019-01-27T09:19:09.651Z,98820.01
2019-01-27T09:21:56.507Z,98811.83
2019-01-27T09:24:42.993Z,98808.44
2019-01-27T09:27:23.791Z,98808.03
2019-01-27T09:29:54.026Z,98805.95
2019-01-27T09:32:24.521Z,98801.05
2019-01-27T09:34:57.966Z,98815.98
2019-01-27T09:37:32.182Z,98816.63
2019-01-27T09:40:05.608Z,98811.69
2019-01-27T09:42:53.691Z,98818.33
2019-01-27T09:45:32.264Z,98815.02
2019-01-27T09:48:13.579Z,98810.18
2019-01-27T09:50:53.998Z,98811.88
2019-01-27T09:53:28.258Z,98801.67
2019-01-27T09:56:01.553Z,98797.97
2019-01-27T09:58:44.087Z,98792.36
2019-01-27T10:01:31.155Z,98785.58
2019-01-27T10:04:10.754Z,98786.54
2019-01-27T10:06:47.342Z,98782.96
2019-01-27T10:09:20.472Z,98771.97
2019-01-27T10:11:53.922Z,98776.80
2019-01-27T10:14:24.122Z,98764.63
2019-01-27T10:16:57.221Z,98759.37
2019-01-27T10:19:42.894Z,98762.69
2019-01-27T10:22:22.070Z,98756.34
2019-01-27T10:24:58.563Z,98744.77
2019-01-27T10:27:31.537Z,98748.20
2019-01-27T10:30:19.738Z,98735.00
2019-01-27T10:32:52.833Z,98735.00
2019-01-27T10:35:26.003Z,98725.53
2019-01-27T10:38:02.346Z,98726.22
2019-01-27T10:40:39.655Z,98727.40
2019-01-27T10:43:07.471Z,98718.73
2019-01-27T10:45:40.532Z,98704.13
2019-01-27T10:48:13.813Z,98696.00
2019-01-27T10:50:55.783Z,98698.90
2019-01-27T10:53:52.595Z,98689.96
2019-01-27T10:56:31.926Z,98701.79
2019-01-27T10:59:02.176Z,98701.12
2019-01-27T11:01:38.493Z,98692.66
2019-01-27T11:04:11.807Z,98683.73
2019-01-27T11:06:53.685Z,98682.08
2019-01-27T11:09:30.105Z,98690.48
2019-01-27T11:12:06.400Z,98696.78
2019-01-27T11:14:39.661Z,98690.57
2019-01-27T11:17:25.114Z,98690.57
2019-01-27T11:19:57.908Z,98704.30
2019-01-27T11:22:35.561Z,98697.48
2019-01-27T11:25:12.914Z,98695.72
2019-01-27T11:27:49.229Z,98694.19
2019-01-27T11:30:19.499Z,98685.86
2019-01-27T11:32:52.781Z,98679.31
2019-01-27T11:35:23.042Z,98674.72
2019-01-27T11:37:59.060Z,98671.52
2019-01-27T11:40:32.194Z,98665.66
2019-01-27T11:43:08.445Z,98671.02
2019-01-27T11:45:38.642Z,98666.06
2019-01-27T11:48:11.894Z,98667.95
2019-01-27T11:50:42.175Z,98666.77
2019-01-27T11:53:10.833Z,98665.17
2019-01-27T11:55:39.459Z,98663.28
2019-01-27T11:58:10.966Z,98656.64
2019-01-27T12:00:41.291Z,98661.77
2019-01-27T12:03:09.832Z,98668.30
2019-01-27T12:05:38.465Z,98666.39
2019-01-27T12:08:07.134Z,98663.00
2019-01-27T12:10:35.687Z,98655.84
2019-01-27T12:13:04.552Z,98668.06
2019-01-27T12:15:33.307Z,98662.09
2019-01-27T12:18:01.928Z,98668.39
2019-01-27T12:20:30.550Z,98662.15
2019-01-27T12:22:59.072Z,98655.34
2019-01-27T12:25:27.715Z,98648.27
2019-01-27T12:27:56.275Z,98648.66
2019-01-27T12:30:25.008Z,98646.89
2019-01-27T12:32:59.347Z,98651.60
2019-01-27T12:35:27.973Z,98646.28
2019-01-27T12:37:56.638Z,98651.39
2019-01-27T12:40:25.862Z,98648.55
2019-01-27T12:42:54.528Z,98650.23
2019-01-27T12:45:23.179Z,98649.52
2019-01-27T12:47:51.843Z,98657.02
2019-01-27T12:50:21.085Z,98651.74
2019-01-27T12:52:52.209Z,98649.81
2019-01-27T12:55:23.836Z,98649.93
2019-01-27T12:57:52.383Z,98644.17
2019-01-27T13:00:39.376Z,98652.41
2019-01-27T13:03:10.674Z,98654.84
2019-01-27T13:05:39.353Z,98652.20
2019-01-27T13:08:13.362Z,98642.73
2019-01-27T13:10:42.537Z,98642.53
2019-01-27T13:13:12.148Z,98646.88
2019-01-27T13:15:40.841Z,98649.64
2019-01-27T13:18:09.512Z,98638.48
2019-01-27T13:20:38.187Z,98636.17
2019-01-27T13:23:06.809Z,98632.80
2019-01-27T13:25:38.374Z,98632.39
2019-01-27T13:28:09.754Z,98628.12
2019-01-27T13:30:41.072Z,98630.66
2019-01-27T13:33:09.767Z,98634.95
2019-01-27T13:35:38.930Z,98634.31
2019-01-27T13:38:07.685Z,98629.87
2019-01-27T13:40:36.404Z,98623.89
2019-01-27T13:43:05.191Z,98618.97
2019-01-27T13:45:33.930Z,98625.04
2019-01-27T13:48:02.546Z,98622.11
2019-01-27T13:50:31.202Z,98622.88
2019-01-27T13:52:59.855Z,98628.91
2019-01-27T13:55:32.735Z,98622.34
2019-01-27T13:58:01.521Z,98629.08
2019-01-27T14:00:41.949Z,98625.17
2019-01-27T14:03:10.658Z,98640.61
2019-01-27T14:05:42.244Z,98637.47
2019-01-27T14:08:13.925Z,98644.73
2019-01-27T14:10:45.278Z,98642.34
2019-01-27T14:13:15.077Z,98641.43
2019-01-27T14:15:44.376Z,98643.59
2019-01-27T14:18:13.359Z,98641.34
2019-01-27T14:20:42.007Z,98634.75
2019-01-27T14:23:10.695Z,98631.77
2019-01-27T14:25:39.321Z,98626.63
2019-01-27T14:28:07.951Z,98631.92
2019-01-27T14:30:39.422Z,98627.44
2019-01-27T14:33:11.333Z,98627.26
2019-01-27T14:35:52.214Z,98625.98
2019-01-27T14:38:23.902Z,98630.91
2019-01-27T14:40:52.588Z,98630.35
2019-01-27T14:43:21.208Z,98630.45
2019-01-27T14:45:49.881Z,98635.09
2019-01-27T14:48:18.569Z,98639.82
2019-01-27T14:50:48.893Z,98630.74
2019-01-27T14:53:17.569Z,98635.31
2019-01-27T14:55:47.017Z,98651.63
2019-01-27T14:58:15.682Z,98649.58
2019-01-27T15:00:45.484Z,98649.59
2019-01-27T15:03:14.510Z,98643.37
2019-01-27T15:05:43.180Z,98656.26
2019-01-27T15:08:11.818Z,98661.22
2019-01-27T15:10:43.220Z,98665.88
2019-01-27T15:13:11.852Z,98673.30
2019-01-27T15:15:40.732Z,98670.84
2019-01-27T15:18:12.147Z,98671.58
2019-01-27T15:20:46.322Z,98675.89
2019-01-27T15:23:14.962Z,98680.75
2019-01-27T15:25:43.609Z,98686.61
2019-01-27T15:28:12.236Z,98687.02
2019-01-27T15:30:43.768Z,98690.20
2019-01-27T15:33:15.627Z,98696.24
2019-01-27T15:35:44.307Z,98699.28
2019-01-27T15:38:12.947Z,98703.02
2019-01-27T15:40:41.628Z,98705.56
2019-01-27T15:43:10.206Z,98701.78
2019-01-27T15:45:38.850Z,98704.70
2019-01-27T15:48:07.530Z,98708.64
2019-01-27T15:50:36.860Z,98701.33
2019-01-27T15:53:06.782Z,98706.36
2019-01-27T15:55:39.363Z,98717.02
2019-01-27T15:58:08.052Z,98716.25
2019-01-27T16:00:36.814Z,98718.94
2019-01-27T16:03:08.632Z,98719.44
2019-01-27T16:05:40.086Z,98719.06
2019-01-27T16:08:08.720Z,98724.07
2019-01-27T16:10:37.355Z,98722.09
2019-01-27T16:13:06.037Z,98731.30
2019-01-27T16:15:36.353Z,98732.53
2019-01-27T16:18:06.652Z,98729.56
2019-01-27T16:20:35.287Z,98737.25
2019-01-27T16:23:11.266Z,98741.06
2019-01-27T16:25:41.457Z,98737.86
2019-01-27T16:28:10.284Z,98741.81
2019-01-27T16:30:58.071Z,98745.08
2019-01-27T16:33:43.575Z,98745.28
2019-01-27T16:36:12.280Z,98748.46
2019-01-27T16:38:40.903Z,98751.84
2019-01-27T16:41:09.589Z,98757.48
2019-01-27T16:43:38.255Z,98760.86
2019-01-27T16:46:07.042Z,98749.80
2019-01-27T16:48:36.908Z,98761.05
2019-01-27T16:51:05.725Z,98760.66
2019-01-27T16:53:34.515Z,98759.52
2019-01-27T16:56:06.291Z,98759.69
2019-01-27T16:58:34.914Z,98758.95
2019-01-27T17:01:04.151Z,98757.72
2019-01-27T17:03:35.952Z,98763.69
2019-01-27T17:06:05.473Z,98758.51
2019-01-27T17:08:34.082Z,98767.63
2019-01-27T17:11:02.721Z,98776.41
2019-01-27T17:13:31.517Z,98785.44
2019-01-27T17:16:00.624Z,98783.16
2019-01-27T17:18:32.002Z,98784.50
2019-01-27T17:21:00.646Z,98785.64
2019-01-27T17:23:43.828Z,98780.33
2019-01-27T17:26:12.463Z,98787.99
2019-01-27T17:28:41.198Z,98784.60
2019-01-27T17:31:12.832Z,98788.25
2019-01-27T17:33:41.452Z,98787.03
2019-01-27T17:36:10.134Z,98785.97
2019-01-27T17:38:42.191Z,98788.05
2019-01-27T17:41:10.895Z,98792.78
2019-01-27T17:43:39.516Z,98793.62
2019-01-27T17:46:14.069Z,98795.53
2019-01-27T17:48:42.698Z,98791.24
2019-01-27T17:51:11.469Z,98790.06
2019-01-27T17:53:44.712Z,98795.47
2019-01-27T17:56:19.963Z,98796.05
2019-01-27T17:58:54.378Z,98803.45
2019-01-27T18:01:24.969Z,98803.48
2019-01-27T18:03:55.252Z,98808.55
2019-01-27T18:06:42.002Z,98809.84
2019-01-27T18:09:13.038Z,98810.05
2019-01-27T18:11:43.396Z,98797.81
2019-01-27T18:14:13.735Z,98798.81
2019-01-27T18:16:46.901Z,98802.34
2019-01-27T18:19:15.569Z,98807.17
2019-01-27T18:21:44.197Z,98807.70
2019-01-27T18:24:12.959Z,98805.71
2019-01-27T18:26:41.780Z,98799.41
2019-01-27T18:29:10.440Z,98799.92
2019-01-27T18:31:44.316Z,98806.66
2019-01-27T18:34:13.226Z,98808.75
2019-01-27T18:36:41.903Z,98811.23
2019-01-27T18:39:14.923Z,98812.11
2019-01-27T18:41:48.476Z,98812.59
2019-01-27T18:44:25.723Z,98814.14
2019-01-27T18:46:54.449Z,98808.70
2019-01-27T18:49:28.821Z,98809.19
2019-01-27T18:51:57.514Z,98803.66
2019-01-27T18:54:35.715Z,98804.95
2019-01-27T18:57:13.270Z,98811.89
2019-01-27T18:59:43.604Z,98811.84
2019-01-27T19:02:32.585Z,98815.71
2019-01-27T19:05:17.383Z,98815.67
2019-01-27T19:07:47.705Z,98815.27
2019-01-27T19:10:22.250Z,98820.00
2019-01-27T19:12:52.622Z,98830.34
2019-01-27T19:15:34.036Z,98814.48
2019-01-27T19:18:22.777Z,98818.41
2019-01-27T19:20:56.872Z,98818.87
2019-01-27T19:23:45.095Z,98816.76
2019-01-27T19:26:37.174Z,98815.49
2019-01-27T19:29:26.621Z,98825.00
2019-01-27T19:31:57.002Z,98827.65
2019-01-27T19:34:36.081Z,98822.96
2019-01-27T19:37:16.850Z,98826.81
2019-01-27T19:39:51.352Z,98828.52
2019-01-27T19:42:22.707Z,98826.80
2019-01-27T19:45:09.570Z,98837.95
2019-01-27T19:47:45.332Z,98838.80
2019-01-27T19:50:19.824Z,98834.52
2019-01-27T19:52:57.648Z,98835.81
2019-01-27T19:55:44.582Z,98833.66
2019-01-27T19:58:25.390Z,98846.52
2019-01-27T20:00:58.831Z,98847.36
2019-01-27T20:03:30.148Z,98848.22
2019-01-27T20:06:02.153Z,98850.80
2019-01-27T20:08:41.452Z,98850.36
2019-01-27T20:11:27.855Z,98851.61
2019-01-27T20:14:00.964Z,98837.90
2019-01-27T20:16:31.299Z,98840.49
2019-01-27T20:19:05.457Z,98843.48
2019-01-27T20:21:37.044Z,98842.20
2019-01-27T20:24:10.193Z,98848.62
2019-01-27T20:26:49.713Z,98855.91
2019-01-27T20:29:36.287Z,98861.02
2019-01-27T20:32:13.258Z,98857.59
2019-01-27T20:34:52.452Z,98853.75
2019-01-27T20:37:29.171Z,98848.60
2019-01-27T20:39:59.394Z,98834.45
2019-01-27T20:42:43.222Z,98842.17
2019-01-27T20:45:15.018Z,98832.73
2019-01-27T20:47:45.384Z,98822.05
2019-01-27T20:50:16.769Z,98826.30
2019-01-27T20:52:53.736Z,98831.04
2019-01-27T20:55:24.078Z,98824.59
2019-01-27T20:57:57.850Z,98826.31
2019-01-27T21:00:38.057Z,98828.87
2019-01-27T21:03:24.709Z,98826.29
2019-01-27T21:05:55.049Z,98822.44
2019-01-27T21:08:28.484Z,98822.03
2019-01-27T21:11:09.203Z,98817.74
2019-01-27T21:13:51.284Z,98819.92
2019-01-27T21:16:22.702Z,98809.63
2019-01-27T21:18:56.850Z,98812.63
2019-01-27T21:21:26.285Z,98801.50
2019-01-27T21:23:54.905Z,98802.80
2019-01-27T21:26:29.801Z,98808.79
2019-01-27T21:28:59.137Z,98815.66
2019-01-27T21:31:27.756Z,98813.92
2019-01-27T21:33:56.387Z,98816.95
2019-01-27T21:36:25.021Z,98818.22
2019-01-27T21:38:53.572Z,98810.50
2019-01-27T21:41:22.257Z,98817.81
2019-01-27T21:43:54.939Z,98807.95
2019-01-27T21:46:23.526Z,98811.78
2019-01-27T21:48:58.230Z,98810.94
2019-01-27T21:51:38.070Z,98812.67
2019-01-27T21:54:06.713Z,98817.37
2019-01-27T21:56:35.425Z,98819.95
2019-01-27T21:59:04.456Z,98806.69
2019-01-27T22:01:39.191Z,98803.67
2019-01-27T22:04:07.827Z,98804.55
2019-01-27T22:06:36.524Z,98801.11
2019-01-27T22:09:08.033Z,98782.70
2019-01-27T22:11:39.458Z,98780.57
2019-01-27T22:14:09.203Z,98780.55
2019-01-27T22:16:42.115Z,98793.85
2019-01-27T22:19:10.805Z,98782.25
2019-01-27T22:21:41.038Z,98771.12
2019-01-27T22:24:09.662Z,98773.70
2019-01-27T22:26:38.365Z,98772.84
2019-01-27T22:29:06.967Z,98774.58
2019-01-27T22:31:41.878Z,98774.14
2019-01-27T22:34:10.436Z,98774.58
2019-01-27T22:36:39.083Z,98770.30
2019-01-27T22:39:08.949Z,98761.72
2019-01-27T22:41:37.511Z,98757.89
2019-01-27T22:44:06.201Z,98754.86
2019-01-27T22:46:34.842Z,98747.98
2019-01-27T22:49:03.493Z,98749.71
2019-01-27T22:51:32.154Z,98749.71
2019-01-27T22:54:00.824Z,98755.67
2019-01-27T22:56:29.460Z,98749.26
2019-01-27T22:58:58.145Z,98755.23
2019-01-27T23:01:26.884Z,98757.81
2019-01-27T23:03:55.562Z,98756.13
2019-01-27T23:06:30.343Z,98750.97
2019-01-27T23:08:58.935Z,98754.33
2019-01-27T23:11:30.105Z,98764.55
2019-01-27T23:13:58.789Z,98777.00
2019-01-27T23:16:27.431Z,98783.91
2019-01-27T23:18:56.103Z,98790.76
2019-01-27T23:21:24.755Z,98796.29
2019-01-27T23:23:54.102Z,98803.61
2019-01-27T23:26:24.353Z,98806.98
2019-01-27T23:28:52.997Z,98805.55
2019-01-27T23:31:21.676Z,98796.13
2019-01-27T23:33:50.247Z,98789.66
2019-01-27T23:36:18.933Z,98785.03
2019-01-27T23:38:47.562Z,98786.34
2019-01-27T23:41:16.172Z,98780.31
2019-01-27T23:43:44.812Z,98778.93
2019-01-27T23:46:13.382Z,98773.02
2019-01-27T23:48:42.161Z,98782.50
2019-01-27T23:51:24.053Z,98769.73
2019-01-27T23:53:55.442Z,98765.52
2019-01-27T23:56:29.884Z,98758.69
2019-01-27T23:58:58.533Z,98757.35
